Oak Park, Minnesota
Current Conditions -  °F | °C
As of 7:54 PM on Friday 24 Oct 2014 (Local Time) from KPNM Reporting Station
Clear Clear  
Wind Chill: 59°   Ceiling: Unl
Heat Index: 59°   Visibility: 10mi
Dew Point: 52°   Wind: 3mph
Humidity: 77%   Direction: 210°SSW
Pressure: 29.83"   Gusts: NA
Location:  45.7°N, 93.82°W
Report Text: KPNM 250054Z AUTO 21003KT 10SM CLR 15/11 A2983 RMK AO2
Loading
Personal Weather Stations






























Interactive Weather Map
Tropical Storm Tracking
New forecast layout! Learn more

10-Day Weather Forecast

Advertisements
Track Severe Weather on mobile